createdAt,value
2018-10-11T00:03:59.823Z,15.68
2018-10-11T00:09:04.724Z,15.61
2018-10-11T00:14:08.511Z,15.53
2018-10-11T00:19:12.096Z,15.45
2018-10-11T00:24:15.904Z,15.28
2018-10-11T00:29:19.447Z,15.17
2018-10-11T00:34:30.339Z,15.05
2018-10-11T00:39:33.877Z,14.97
2018-10-11T00:44:37.451Z,15.00
2018-10-11T00:49:41.022Z,14.95
2018-10-11T00:54:44.567Z,14.87
2018-10-11T00:59:48.509Z,14.86
2018-10-11T01:04:52.071Z,14.81
2018-10-11T01:09:55.709Z,14.84
2018-10-11T01:14:59.331Z,14.90
2018-10-11T01:20:02.906Z,14.95
2018-10-11T01:25:06.394Z,14.94
2018-10-11T01:30:11.666Z,14.91
2018-10-11T01:35:15.265Z,14.93
2018-10-11T01:40:18.846Z,14.90
2018-10-11T01:45:22.482Z,14.81
2018-10-11T01:50:26.406Z,14.81
2018-10-11T01:55:30.078Z,14.68
2018-10-11T02:00:33.872Z,14.67
2018-10-11T02:05:37.417Z,14.93
2018-10-11T02:10:41.167Z,15.00
2018-10-11T02:15:44.740Z,15.06
2018-10-11T02:20:48.501Z,15.01
2018-10-11T02:25:52.069Z,14.88
2018-10-11T02:30:55.692Z,14.92
2018-10-11T02:35:59.236Z,14.73
2018-10-11T02:41:02.842Z,14.63
2018-10-11T02:46:06.542Z,14.34
2018-10-11T02:51:10.098Z,14.10
2018-10-11T02:56:13.966Z,14.04
2018-10-11T03:01:17.958Z,13.84
2018-10-11T03:06:21.569Z,13.67
2018-10-11T03:11:25.504Z,13.62
2018-10-11T03:16:36.116Z,13.55
2018-10-11T03:21:39.720Z,13.47
2018-10-11T03:26:43.258Z,13.40
2018-10-11T03:31:46.897Z,13.28
2018-10-11T03:36:50.738Z,13.21
2018-10-11T03:41:54.656Z,13.25
2018-10-11T03:46:58.251Z,12.76
2018-10-11T03:52:01.819Z,12.53
2018-10-11T03:57:05.371Z,12.23
2018-10-11T04:02:09.046Z,12.23
2018-10-11T04:07:12.690Z,12.43
2018-10-11T04:12:21.242Z,12.60
2018-10-11T04:17:24.794Z,12.40
2018-10-11T04:22:28.351Z,12.21
2018-10-11T04:27:31.878Z,12.23
2018-10-11T04:32:35.477Z,12.19
2018-10-11T04:37:39.019Z,12.29
2018-10-11T04:42:42.632Z,12.06
2018-10-11T04:47:46.256Z,12.06
2018-10-11T04:52:49.890Z,11.80
2018-10-11T04:57:53.520Z,11.41
2018-10-11T05:02:57.151Z,11.49
2018-10-11T05:08:00.769Z,12.39
2018-10-11T05:13:04.700Z,12.77
2018-10-11T05:18:08.335Z,12.88
2018-10-11T05:23:11.997Z,12.92
2018-10-11T05:28:15.595Z,12.93
2018-10-11T05:33:19.456Z,13.12
2018-10-11T05:38:23.402Z,13.30
2018-10-11T05:43:27.766Z,13.32
2018-10-11T05:48:33.094Z,13.39
2018-10-11T05:53:36.679Z,13.36
2018-10-11T05:58:40.320Z,13.37
2018-10-11T06:03:45.087Z,13.45
2018-10-11T06:08:48.735Z,13.62
2018-10-11T06:13:52.334Z,13.39
2018-10-11T06:18:55.962Z,13.38
2018-10-11T06:23:59.517Z,13.37
2018-10-11T06:29:03.215Z,13.33
2018-10-11T06:34:07.029Z,13.40
2018-10-11T06:39:11.135Z,13.51
2018-10-11T06:44:14.758Z,13.67
2018-10-11T06:49:18.422Z,13.84
2018-10-11T06:54:22.095Z,14.08
2018-10-11T06:59:25.627Z,14.28
2018-10-11T07:04:29.219Z,14.47
2018-10-11T07:09:32.766Z,14.75
2018-10-11T07:14:36.348Z,15.07
2018-10-11T07:19:39.946Z,15.10
2018-10-11T07:24:43.588Z,15.16
2018-10-11T07:29:47.155Z,15.33
2018-10-11T07:34:50.776Z,15.49
2018-10-11T07:39:54.272Z,15.61
2018-10-11T07:44:57.900Z,15.79
2018-10-11T07:50:01.529Z,16.03
2018-10-11T07:55:05.100Z,16.24
2018-10-11T08:00:12.754Z,16.49
2018-10-11T08:05:16.373Z,16.53
2018-10-11T08:10:19.934Z,16.68
2018-10-11T08:15:23.499Z,16.84
2018-10-11T08:20:28.600Z,16.97
2018-10-11T08:25:32.503Z,17.21
2018-10-11T08:30:35.842Z,17.45
2018-10-11T08:35:39.406Z,17.65
2018-10-11T08:40:42.959Z,17.83
2018-10-11T08:45:46.660Z,18.00
2018-10-11T08:50:50.423Z,18.25
2018-10-11T08:55:53.928Z,18.41
2018-10-11T09:00:57.728Z,18.61
2018-10-11T09:06:01.397Z,18.79
2018-10-11T09:11:04.992Z,19.04
2018-10-11T09:16:08.462Z,19.00
2018-10-11T09:21:11.997Z,19.13
2018-10-11T09:26:15.562Z,19.42
2018-10-11T09:31:19.111Z,19.44
2018-10-11T09:36:22.781Z,19.58
2018-10-11T09:41:26.302Z,19.77
2018-10-11T09:46:29.924Z,19.95
2018-10-11T09:51:33.483Z,20.15
2018-10-11T09:57:17.931Z,20.33
2018-10-11T10:02:22.001Z,20.55
2018-10-11T10:07:25.711Z,20.73
2018-10-11T10:12:29.232Z,20.86
2018-10-11T10:17:32.810Z,21.03
2018-10-11T10:22:36.418Z,21.20
2018-10-11T10:27:39.955Z,21.36
2018-10-11T10:32:43.657Z,21.52
2018-10-11T10:37:47.234Z,21.56
2018-10-11T10:42:50.778Z,21.62
2018-10-11T10:47:54.375Z,21.76
2018-10-11T10:52:58.161Z,21.80
2018-10-11T10:58:01.852Z,21.85
2018-10-11T11:03:05.387Z,21.90
2018-10-11T11:08:08.939Z,21.85
2018-10-11T11:13:12.550Z,22.19
2018-10-11T11:18:16.078Z,22.31
2018-10-11T11:23:19.733Z,22.27
2018-10-11T11:28:23.483Z,22.41
2018-10-11T11:33:27.050Z,22.40
2018-10-11T11:38:30.637Z,22.38
2018-10-11T11:43:34.307Z,22.39
2018-10-11T11:48:37.867Z,22.52
2018-10-11T11:53:42.372Z,22.51
2018-10-11T11:58:47.882Z,22.47
2018-10-11T12:03:51.486Z,22.60
2018-10-11T12:08:55.013Z,22.73
2018-10-11T12:13:58.552Z,22.83
2018-10-11T12:19:02.195Z,22.84
2018-10-11T12:24:05.817Z,22.88
2018-10-11T12:29:09.386Z,22.83
2018-10-11T12:34:13.150Z,22.88
2018-10-11T12:39:16.698Z,22.84
2018-10-11T12:44:20.340Z,22.83
2018-10-11T12:49:23.944Z,22.73
2018-10-11T12:54:27.411Z,22.79
2018-10-11T12:59:30.981Z,22.83
2018-10-11T13:04:34.522Z,23.09
2018-10-11T13:09:38.052Z,23.21
2018-10-11T13:14:41.611Z,23.16
2018-10-11T13:19:45.158Z,23.28
2018-10-11T13:24:49.450Z,23.14
2018-10-11T13:29:53.040Z,23.16
2018-10-11T13:34:56.583Z,23.06
2018-10-11T13:40:00.124Z,23.08
2018-10-11T13:45:03.814Z,22.98
2018-10-11T13:50:07.427Z,22.80
2018-10-11T13:55:13.057Z,22.70
2018-10-11T14:00:26.517Z,22.65
2018-10-11T14:05:30.015Z,22.72
2018-10-11T14:10:33.624Z,22.77
2018-10-11T14:15:37.157Z,22.78
2018-10-11T14:20:40.699Z,22.60
2018-10-11T14:25:44.219Z,22.36
2018-10-11T14:30:47.818Z,22.18
2018-10-11T14:35:51.483Z,22.14
2018-10-11T14:40:55.144Z,22.33
2018-10-11T14:45:58.698Z,22.30
2018-10-11T14:51:02.348Z,22.47
2018-10-11T14:56:05.914Z,22.58
2018-10-11T15:01:09.455Z,22.55
2018-10-11T15:06:13.526Z,22.50
2018-10-11T15:11:17.098Z,22.54
2018-10-11T15:16:20.658Z,22.51
2018-10-11T15:21:24.230Z,22.58
2018-10-11T15:26:27.759Z,22.44
2018-10-11T15:31:31.318Z,22.38
2018-10-11T15:36:34.944Z,22.24
2018-10-11T15:41:38.860Z,21.98
2018-10-11T15:46:42.944Z,21.90
2018-10-11T15:51:46.641Z,21.74
2018-10-11T15:56:51.358Z,21.58
2018-10-11T16:01:54.984Z,21.43
2018-10-11T16:06:58.530Z,21.28
2018-10-11T16:12:02.213Z,21.05
2018-10-11T16:17:05.832Z,20.75
2018-10-11T16:22:09.423Z,20.60
2018-10-11T16:27:13.043Z,20.43
2018-10-11T16:32:16.927Z,20.20
2018-10-11T16:37:20.439Z,19.94
2018-10-11T16:42:24.111Z,19.73
2018-10-11T16:47:27.820Z,19.55
2018-10-11T16:52:31.395Z,19.33
2018-10-11T16:57:35.294Z,19.17
2018-10-11T17:02:39.073Z,19.03
2018-10-11T17:07:42.713Z,19.21
2018-10-11T17:12:46.706Z,19.48
2018-10-11T17:17:50.311Z,19.54
2018-10-11T17:22:53.965Z,19.55
2018-10-11T17:27:57.624Z,19.68
2018-10-11T17:33:01.294Z,19.64
2018-10-11T17:38:04.920Z,19.68
2018-10-11T17:43:08.506Z,19.72
2018-10-11T17:48:12.112Z,19.71
2018-10-11T17:53:15.757Z,19.61
2018-10-11T17:58:19.404Z,19.65
2018-10-11T18:03:23.020Z,19.64
2018-10-11T18:08:26.976Z,19.62
2018-10-11T18:13:31.018Z,19.64
2018-10-11T18:18:34.796Z,19.55
2018-10-11T18:23:38.374Z,19.54
2018-10-11T18:28:42.063Z,19.50
2018-10-11T18:33:45.587Z,19.52
2018-10-11T18:38:49.147Z,19.56
2018-10-11T18:43:53.580Z,19.49
2018-10-11T18:48:57.254Z,19.43
2018-10-11T18:54:00.848Z,19.41
2018-10-11T18:59:04.433Z,19.36
2018-10-11T19:04:08.121Z,19.27
2018-10-11T19:09:11.703Z,19.20
2018-10-11T19:14:15.400Z,19.16
2018-10-11T19:19:19.125Z,19.15
2018-10-11T19:24:22.916Z,19.10
2018-10-11T19:29:26.515Z,19.06
2018-10-11T19:34:30.083Z,19.05
2018-10-11T19:39:34.660Z,18.95
2018-10-11T19:44:38.369Z,18.90
2018-10-11T19:49:42.514Z,18.79
2018-10-11T19:54:46.208Z,18.69
2018-10-11T19:59:49.810Z,18.58
2018-10-11T20:04:53.471Z,18.41
2018-10-11T20:09:57.454Z,18.22
2018-10-11T20:15:01.808Z,18.16
2018-10-11T20:20:05.679Z,18.23
2018-10-11T20:25:09.684Z,18.12
2018-10-11T20:30:15.320Z,17.88
2018-10-11T20:35:19.027Z,17.70
2018-10-11T20:40:22.694Z,17.48
2018-10-11T20:45:26.312Z,17.45
2018-10-11T20:50:29.887Z,17.45
2018-10-11T20:55:33.436Z,17.39
2018-10-11T21:00:37.403Z,17.33
2018-10-11T21:05:40.974Z,17.06
2018-10-11T21:10:44.981Z,16.96
2018-10-11T21:15:48.825Z,16.85
2018-10-11T21:20:52.479Z,16.61
2018-10-11T21:25:56.142Z,16.36
2018-10-11T21:30:59.739Z,16.06
2018-10-11T21:36:03.307Z,15.94
2018-10-11T21:41:06.904Z,15.93
2018-10-11T21:46:10.467Z,15.99
2018-10-11T21:51:14.050Z,15.95
2018-10-11T21:56:17.663Z,15.66
2018-10-11T22:01:22.687Z,15.64
2018-10-11T22:06:26.234Z,15.78
2018-10-11T22:11:29.865Z,16.08
2018-10-11T22:16:33.642Z,16.20
2018-10-11T22:21:37.514Z,16.30
2018-10-11T22:26:41.077Z,16.32
2018-10-11T22:31:44.625Z,16.27
2018-10-11T22:36:48.248Z,16.26
2018-10-11T22:41:51.791Z,16.13
2018-10-11T22:46:55.415Z,16.03
2018-10-11T22:51:59.169Z,15.79
2018-10-11T22:57:02.855Z,15.63
2018-10-11T23:02:06.557Z,15.63
2018-10-11T23:07:10.506Z,15.50
2018-10-11T23:12:14.094Z,15.43
2018-10-11T23:17:17.701Z,15.31
2018-10-11T23:22:21.254Z,15.18
2018-10-11T23:27:24.844Z,15.06
2018-10-11T23:32:28.409Z,15.07
2018-10-11T23:37:31.940Z,15.08
2018-10-11T23:42:35.519Z,15.09
2018-10-11T23:47:39.131Z,15.05
2018-10-11T23:52:42.654Z,15.06
2018-10-11T23:57:46.261Z,14.86
